KFNB

Brenner Field Airport

Falls City, Nebraska, USA
METAR KFNB 260353Z AUTO 20009KT 10SM CLR 27/18 A2977 RMK AO2 SLP070 T02670178
Observed Flight Rules
May-26 @ 03:53 UTC (28 minutes ago) Visual Flight Rules
Wind Visibility Clouds
200° at 9 knots 10 miles
  • Clear skies
Temperatures Readings
Current 27°C / 81°F
Dewpoint 18°C / 64°F
Humidity 58%
Altimeter 29.77" Hg
Pressure 1007 hPa
Elevation 300
METAR KFNB 260353Z AUTO 20009KT 10SM CLR 27/18 A2977 RMK AO2 SLP070 T02670178
Observed Flight Rules
May-26 @ 03:53 UTC
(28 minutes ago)
VFR
Wind Visibility
200° at 9 knots 10 miles
Clouds
  • Clear skies
Temperature Dewpoint
27°C / 81°F 18°C / 64°F
Humidity Altimeter Pressure
58% 29.77" Hg 1007 hPa